createdAt,value
2019-02-16T00:00:11.522Z,89.44
2019-02-16T00:02:59.880Z,89.70
2019-02-16T00:05:48.339Z,89.93
2019-02-16T00:08:36.608Z,90.17
2019-02-16T00:11:25.515Z,90.39
2019-02-16T00:14:14.019Z,90.62
2019-02-16T00:17:03.067Z,90.90
2019-02-16T00:19:52.558Z,91.19
2019-02-16T00:22:41.015Z,91.52
2019-02-16T00:25:29.712Z,91.71
2019-02-16T00:28:17.910Z,91.89
2019-02-16T00:31:06.010Z,92.20
2019-02-16T00:33:54.502Z,92.36
2019-02-16T00:36:42.976Z,92.46
2019-02-16T00:39:31.169Z,92.68
2019-02-16T00:42:19.451Z,92.90
2019-02-16T00:45:07.700Z,93.21
2019-02-16T00:47:55.888Z,93.39
2019-02-16T00:50:44.296Z,93.73
2019-02-16T00:53:33.145Z,94.03
2019-02-16T00:56:21.518Z,94.19
2019-02-16T00:59:10.067Z,94.22
2019-02-16T01:01:58.347Z,94.34
2019-02-16T01:04:46.839Z,94.50
2019-02-16T01:07:35.347Z,94.77
2019-02-16T01:10:23.352Z,94.94
2019-02-16T01:13:11.479Z,94.97
2019-02-16T01:15:59.983Z,95.00
2019-02-16T01:18:48.227Z,94.97
2019-02-16T01:21:36.574Z,94.76
2019-02-16T01:24:24.740Z,94.70
2019-02-16T01:27:13.230Z,94.72
2019-02-16T01:30:01.888Z,94.57
2019-02-16T01:32:50.174Z,94.02
2019-02-16T01:35:38.759Z,93.21
2019-02-16T01:38:27.263Z,92.83
2019-02-16T01:41:15.742Z,92.88
2019-02-16T01:44:04.580Z,93.05
2019-02-16T01:46:53.548Z,93.40
2019-02-16T01:49:41.751Z,93.80
2019-02-16T01:52:30.354Z,94.00
2019-02-16T01:55:18.810Z,94.12
2019-02-16T01:58:07.511Z,94.39
2019-02-16T02:00:56.008Z,94.62
2019-02-16T02:03:44.568Z,94.67
2019-02-16T02:06:33.218Z,94.89
2019-02-16T02:09:21.901Z,95.15
2019-02-16T02:12:10.210Z,95.24
2019-02-16T02:14:59.211Z,95.18
2019-02-16T02:17:47.680Z,95.20
2019-02-16T02:20:36.078Z,95.31
2019-02-16T02:23:24.345Z,95.37
2019-02-16T02:26:13.011Z,95.44
2019-02-16T02:29:01.202Z,95.61
2019-02-16T02:31:49.819Z,95.76
2019-02-16T02:34:38.277Z,95.91
2019-02-16T02:37:26.971Z,95.98
2019-02-16T02:40:16.315Z,96.04
2019-02-16T02:43:04.700Z,96.04
2019-02-16T02:45:52.929Z,96.15
2019-02-16T02:48:41.668Z,96.32
2019-02-16T02:51:30.221Z,96.28
2019-02-16T02:54:19.261Z,96.28
2019-02-16T02:57:07.531Z,96.32
2019-02-16T02:59:56.175Z,96.43
2019-02-16T03:02:44.376Z,96.46
2019-02-16T03:05:33.000Z,96.47
2019-02-16T03:08:21.567Z,96.48
2019-02-16T03:11:10.285Z,96.38
2019-02-16T03:13:58.507Z,95.51
2019-02-16T03:16:47.256Z,94.98
2019-02-16T03:19:36.329Z,94.10
2019-02-16T03:22:25.307Z,93.54
2019-02-16T03:25:13.927Z,93.26
2019-02-16T03:28:36.487Z,93.24
2019-02-16T03:32:06.189Z,93.46
2019-02-16T03:35:38.894Z,93.86
2019-02-16T03:39:22.618Z,94.34
2019-02-16T03:42:10.928Z,94.69
2019-02-16T03:44:59.410Z,94.94
2019-02-16T03:47:47.609Z,95.05
2019-02-16T03:50:36.167Z,95.16
2019-02-16T03:53:25.726Z,95.40
2019-02-16T03:56:13.949Z,95.62
2019-02-16T03:59:02.543Z,95.67
2019-02-16T04:01:51.031Z,95.82
2019-02-16T04:04:39.515Z,96.03
2019-02-16T04:07:27.802Z,96.21
2019-02-16T04:10:16.051Z,96.29
2019-02-16T04:13:04.271Z,96.37
2019-02-16T04:15:53.270Z,96.54
2019-02-16T04:18:41.672Z,96.57
2019-02-16T04:21:30.684Z,96.64
2019-02-16T04:24:19.026Z,96.72
2019-02-16T04:27:07.485Z,96.75
2019-02-16T04:29:55.775Z,96.76
2019-02-16T04:32:44.476Z,96.82
2019-02-16T04:35:32.729Z,96.92
2019-02-16T04:38:21.217Z,96.93
2019-02-16T04:41:09.644Z,96.90
2019-02-16T04:43:58.621Z,96.92
2019-02-16T04:46:47.076Z,96.86
2019-02-16T04:49:35.346Z,96.72
2019-02-16T04:52:33.905Z,96.67
2019-02-16T04:55:13.640Z,96.67
2019-02-16T04:58:02.187Z,96.73
2019-02-16T05:00:50.657Z,96.87
2019-02-16T05:03:38.931Z,96.88
2019-02-16T05:06:27.892Z,96.83
2019-02-16T05:09:16.452Z,96.84
2019-02-16T05:12:05.946Z,96.88
2019-02-16T05:14:54.443Z,96.99
2019-02-16T05:17:42.612Z,97.01
2019-02-16T05:20:30.801Z,97.01
2019-02-16T05:23:19.124Z,97.06
2019-02-16T05:26:07.725Z,96.87
2019-02-16T05:28:55.955Z,96.79
2019-02-16T05:31:44.192Z,96.85
2019-02-16T05:34:32.392Z,96.89
2019-02-16T05:37:20.717Z,96.92
2019-02-16T05:40:09.752Z,96.89
2019-02-16T05:42:57.981Z,96.89
2019-02-16T05:45:46.588Z,96.85
2019-02-16T05:48:35.099Z,96.78
2019-02-16T05:51:24.230Z,96.89
2019-02-16T05:54:12.449Z,96.42
2019-02-16T05:57:00.930Z,94.74
2019-02-16T05:59:49.356Z,92.76
2019-02-16T06:02:37.670Z,91.39
2019-02-16T06:05:26.293Z,90.67
2019-02-16T06:08:14.573Z,90.36
2019-02-16T06:11:03.294Z,90.61
2019-02-16T06:13:51.320Z,90.44
2019-02-16T06:16:39.648Z,89.59
2019-02-16T06:19:28.279Z,89.15
2019-02-16T06:22:16.792Z,88.09
2019-02-16T06:25:05.153Z,87.64
2019-02-16T06:27:53.669Z,87.46
2019-02-16T06:30:42.015Z,86.77
2019-02-16T06:33:30.510Z,85.99
2019-02-16T06:36:27.150Z,85.00
2019-02-16T06:39:15.611Z,84.49
2019-02-16T06:42:03.783Z,83.90
2019-02-16T06:44:52.249Z,82.75
2019-02-16T06:47:40.869Z,82.75
2019-02-16T06:50:36.774Z,83.15
2019-02-16T06:53:18.971Z,83.86
2019-02-16T06:56:16.949Z,84.11
2019-02-16T06:59:05.662Z,84.50
2019-02-16T07:01:53.981Z,84.49
2019-02-16T07:04:42.192Z,84.80
2019-02-16T07:07:30.396Z,85.14
2019-02-16T07:10:19.133Z,85.49
2019-02-16T07:13:07.389Z,85.82
2019-02-16T07:16:13.937Z,86.07
2019-02-16T07:19:06.376Z,86.01
2019-02-16T07:21:54.654Z,85.91
2019-02-16T07:24:42.834Z,85.82
2019-02-16T07:27:34.554Z,85.64
2019-02-16T07:30:22.813Z,85.57
2019-02-16T07:33:11.846Z,85.21
2019-02-16T07:36:00.410Z,84.47
2019-02-16T07:38:48.656Z,84.47
2019-02-16T07:41:36.931Z,84.22
2019-02-16T07:44:40.904Z,82.79
2019-02-16T07:47:37.458Z,82.79
2019-02-16T07:50:32.578Z,81.12
2019-02-16T07:53:48.940Z,81.12
2019-02-16T07:57:02.667Z,78.83
2019-02-16T08:00:10.602Z,78.83
2019-02-16T08:03:13.798Z,78.26
2019-02-16T08:06:23.476Z,77.30
2019-02-16T08:09:30.475Z,76.74
2019-02-16T08:12:41.333Z,75.69
2019-02-16T08:16:03.834Z,74.91
2019-02-16T08:18:58.387Z,74.46
2019-02-16T08:22:11.413Z,73.53
2019-02-16T08:25:17.837Z,72.21
2019-02-16T08:28:39.697Z,71.54
2019-02-16T08:31:47.021Z,70.20
2019-02-16T08:34:57.048Z,69.86
2019-02-16T08:38:10.840Z,69.29
2019-02-16T08:41:20.752Z,69.01
2019-02-16T08:44:26.257Z,68.36
2019-02-16T08:47:34.172Z,66.46
2019-02-16T08:50:36.493Z,66.26
2019-02-16T08:53:50.201Z,66.29
2019-02-16T08:56:49.283Z,65.29
2019-02-16T08:59:55.186Z,64.93
2019-02-16T09:02:55.032Z,64.62
2019-02-16T09:06:14.384Z,64.51
2019-02-16T09:09:30.411Z,64.23
2019-02-16T09:12:38.986Z,64.13
2019-02-16T09:15:52.025Z,63.08
2019-02-16T09:19:08.332Z,61.63
2019-02-16T09:22:13.995Z,61.53
2019-02-16T09:25:24.264Z,61.16
2019-02-16T09:28:29.826Z,61.35
2019-02-16T09:31:43.658Z,61.34
2019-02-16T09:34:46.085Z,59.99
2019-02-16T09:37:42.651Z,60.25
2019-02-16T09:40:51.481Z,60.21
2019-02-16T09:44:04.614Z,59.68
2019-02-16T09:47:10.386Z,59.73
2019-02-16T09:50:30.261Z,59.22
2019-02-16T09:53:35.906Z,58.40
2019-02-16T09:56:48.714Z,58.32
2019-02-16T09:59:53.890Z,58.01
2019-02-16T10:02:50.513Z,57.10
2019-02-16T10:06:00.430Z,57.32
2019-02-16T10:09:10.953Z,56.00
2019-02-16T10:12:21.047Z,55.49
2019-02-16T10:15:40.570Z,55.49
2019-02-16T10:18:46.189Z,55.09
2019-02-16T10:21:52.652Z,55.13
2019-02-16T10:24:58.240Z,54.63
2019-02-16T10:27:54.132Z,54.06
2019-02-16T10:30:47.788Z,52.45
2019-02-16T10:33:43.557Z,51.80
2019-02-16T10:36:46.960Z,51.72
2019-02-16T10:39:43.455Z,51.65
2019-02-16T10:42:50.925Z,50.93
2019-02-16T10:46:03.874Z,51.52
2019-02-16T10:49:16.886Z,50.45
2019-02-16T10:52:24.216Z,50.46
2019-02-16T10:55:38.197Z,50.82
2019-02-16T10:58:44.263Z,50.77
2019-02-16T11:01:50.600Z,50.12
2019-02-16T11:04:46.954Z,50.18
2019-02-16T11:08:09.527Z,49.68
2019-02-16T11:11:26.085Z,49.77
2019-02-16T11:14:39.196Z,48.87
2019-02-16T11:17:48.272Z,48.82
2019-02-16T11:21:01.982Z,48.35
2019-02-16T11:24:07.990Z,47.70
2019-02-16T11:27:06.514Z,47.37
2019-02-16T11:30:20.042Z,47.25
2019-02-16T11:33:32.116Z,46.91
2019-02-16T11:36:36.020Z,46.98
2019-02-16T11:39:41.507Z,46.14
2019-02-16T11:42:38.178Z,45.74
2019-02-16T11:45:35.572Z,45.20
2019-02-16T11:48:41.471Z,44.81
2019-02-16T11:51:49.329Z,44.48
2019-02-16T11:54:54.144Z,45.17
2019-02-16T11:58:14.049Z,44.77
2019-02-16T12:01:26.922Z,44.49
2019-02-16T12:04:52.462Z,43.89
2019-02-16T12:08:05.358Z,44.22
2019-02-16T12:11:02.291Z,43.60
2019-02-16T12:14:10.552Z,42.96
2019-02-16T12:17:20.812Z,42.59
2019-02-16T12:20:33.626Z,42.44
2019-02-16T12:23:46.312Z,43.14
2019-02-16T12:26:47.169Z,42.75
2019-02-16T12:29:41.380Z,42.27
2019-02-16T12:32:55.013Z,41.52
2019-02-16T12:35:54.066Z,42.22
2019-02-16T12:39:05.064Z,42.15
2019-02-16T12:42:15.199Z,42.19
2019-02-16T12:45:25.616Z,42.70
2019-02-16T12:48:27.925Z,43.30
2019-02-16T12:51:24.578Z,43.51
2019-02-16T12:54:25.899Z,43.87
2019-02-16T12:57:32.997Z,44.59
2019-02-16T13:00:38.898Z,44.23
2019-02-16T13:03:55.522Z,44.15
2019-02-16T13:07:05.962Z,44.68
2019-02-16T13:10:06.161Z,45.12
2019-02-16T13:13:16.818Z,45.31
2019-02-16T13:16:17.790Z,45.02
2019-02-16T13:19:24.803Z,45.17
2019-02-16T13:22:34.180Z,44.30
2019-02-16T13:25:30.819Z,44.11
2019-02-16T13:28:50.280Z,43.63
2019-02-16T13:31:55.947Z,43.44
2019-02-16T13:35:01.797Z,43.58
2019-02-16T13:38:12.279Z,42.63
2019-02-16T13:41:05.105Z,42.75
2019-02-16T13:44:02.536Z,42.49
2019-02-16T13:47:04.320Z,42.27
2019-02-16T13:50:07.089Z,41.66
2019-02-16T13:53:12.763Z,41.91
2019-02-16T13:56:31.827Z,41.99
2019-02-16T13:59:26.391Z,41.52
2019-02-16T14:02:33.890Z,41.55
2019-02-16T14:05:38.295Z,41.73
2019-02-16T14:08:57.730Z,40.88
2019-02-16T14:12:11.654Z,41.13
2019-02-16T14:15:16.555Z,39.98
2019-02-16T14:18:04.790Z,40.18
2019-02-16T14:20:53.238Z,40.03
2019-02-16T14:23:41.724Z,39.19
2019-02-16T14:26:30.015Z,38.91
2019-02-16T14:29:18.251Z,36.86
2019-02-16T14:32:06.431Z,36.03
2019-02-16T14:34:54.871Z,34.45
2019-02-16T14:38:05.408Z,33.35
2019-02-16T14:40:53.660Z,33.11
2019-02-16T14:43:42.288Z,32.76
2019-02-16T14:46:30.812Z,32.65
2019-02-16T14:49:19.495Z,32.18
2019-02-16T14:52:08.254Z,31.98
2019-02-16T14:54:56.913Z,30.54
2019-02-16T14:57:45.123Z,30.97
2019-02-16T15:00:33.786Z,32.02
2019-02-16T15:03:22.056Z,32.78
2019-02-16T15:06:10.074Z,33.26
2019-02-16T15:08:58.549Z,33.96
2019-02-16T15:11:46.931Z,33.55
2019-02-16T15:14:35.184Z,33.67
2019-02-16T15:17:24.143Z,34.18
2019-02-16T15:20:13.118Z,33.75
2019-02-16T15:23:01.624Z,33.24
2019-02-16T15:25:50.005Z,33.15
2019-02-16T15:28:38.266Z,33.75
2019-02-16T15:31:27.676Z,34.39
2019-02-16T15:34:16.610Z,35.38
2019-02-16T15:37:05.138Z,36.52
2019-02-16T15:39:53.704Z,36.99
2019-02-16T15:42:42.015Z,37.54
2019-02-16T15:45:30.689Z,38.28
2019-02-16T15:48:18.916Z,38.95
2019-02-16T15:51:07.242Z,39.49
2019-02-16T15:53:55.798Z,40.15
2019-02-16T15:56:45.089Z,40.96
2019-02-16T15:59:35.408Z,41.83
2019-02-16T16:02:23.279Z,42.94
2019-02-16T16:05:11.526Z,44.00
2019-02-16T16:08:20.556Z,44.78
2019-02-16T16:11:12.798Z,45.64
2019-02-16T16:14:29.672Z,46.73
2019-02-16T16:17:39.867Z,47.58
2019-02-16T16:20:40.862Z,48.71
2019-02-16T16:24:00.213Z,49.91
2019-02-16T16:27:07.419Z,51.04
2019-02-16T16:30:32.977Z,51.97
2019-02-16T16:33:46.087Z,52.52
2019-02-16T16:36:52.153Z,53.36
2019-02-16T16:40:08.732Z,54.31
2019-02-16T16:43:16.374Z,55.13
2019-02-16T16:46:35.214Z,56.25
2019-02-16T16:49:48.247Z,57.13
2019-02-16T16:53:00.259Z,58.23
2019-02-16T16:55:58.550Z,58.91
2019-02-16T16:59:18.039Z,59.37
2019-02-16T17:02:30.737Z,60.25
2019-02-16T17:05:47.120Z,60.95
2019-02-16T17:09:12.845Z,61.70
2019-02-16T17:12:18.326Z,61.99
2019-02-16T17:15:32.053Z,62.33
2019-02-16T17:18:30.171Z,62.89
2019-02-16T17:21:36.811Z,63.36
2019-02-16T17:24:50.448Z,63.75
2019-02-16T17:28:00.751Z,64.36
2019-02-16T17:31:07.317Z,64.93
2019-02-16T17:34:13.139Z,64.89
2019-02-16T17:37:24.393Z,65.33
2019-02-16T17:40:22.293Z,65.75
2019-02-16T17:43:16.844Z,65.89
2019-02-16T17:46:24.286Z,66.59
2019-02-16T17:49:37.470Z,66.65
2019-02-16T17:52:51.275Z,66.45
2019-02-16T17:55:46.617Z,66.59
2019-02-16T17:58:59.863Z,67.28
2019-02-16T18:01:56.858Z,67.72
2019-02-16T18:05:07.658Z,67.95
2019-02-16T18:08:17.979Z,68.82
2019-02-16T18:11:25.304Z,69.31
2019-02-16T18:14:35.445Z,69.48
2019-02-16T18:17:33.079Z,69.63
2019-02-16T18:20:32.446Z,69.94
2019-02-16T18:23:35.114Z,70.12
2019-02-16T18:26:45.363Z,70.18
2019-02-16T18:29:58.098Z,70.60
2019-02-16T18:33:14.498Z,70.84
2019-02-16T18:36:18.310Z,70.94
2019-02-16T18:39:25.451Z,70.85
2019-02-16T18:42:35.939Z,71.11
2019-02-16T18:45:41.488Z,71.90
2019-02-16T18:48:51.825Z,72.33
2019-02-16T18:52:02.243Z,72.64
2019-02-16T18:55:11.050Z,72.75
2019-02-16T18:58:15.467Z,73.00
2019-02-16T19:01:29.010Z,73.23
2019-02-16T19:04:43.325Z,73.37
2019-02-16T19:07:47.960Z,73.30
2019-02-16T19:10:54.227Z,73.17
2019-02-16T19:14:04.857Z,73.12
2019-02-16T19:17:01.319Z,73.23
2019-02-16T19:20:05.784Z,73.42
2019-02-16T19:23:18.917Z,73.42
2019-02-16T19:26:24.063Z,73.51
2019-02-16T19:29:35.271Z,73.78
2019-02-16T19:32:38.953Z,74.20
2019-02-16T19:35:42.992Z,74.54
2019-02-16T19:38:49.302Z,75.19
2019-02-16T19:41:48.020Z,75.58
2019-02-16T19:44:58.627Z,75.90
2019-02-16T19:47:57.683Z,76.02
2019-02-16T19:50:57.071Z,76.26
2019-02-16T19:54:02.912Z,76.60
2019-02-16T19:57:26.645Z,77.02
2019-02-16T20:00:29.174Z,77.47
2019-02-16T20:03:35.123Z,77.44
2019-02-16T20:06:44.559Z,76.76
2019-02-16T20:09:43.774Z,76.66
2019-02-16T20:12:43.895Z,76.81
2019-02-16T20:15:49.505Z,77.14
2019-02-16T20:19:15.095Z,77.33
2019-02-16T20:22:34.135Z,77.20
2019-02-16T20:25:39.687Z,77.45
2019-02-16T20:28:49.934Z,76.84
2019-02-16T20:31:55.654Z,76.68
2019-02-16T20:35:05.723Z,76.99
2019-02-16T20:38:03.961Z,76.92
2019-02-16T20:41:07.909Z,77.11
2019-02-16T20:44:14.115Z,77.53
2019-02-16T20:47:16.358Z,77.83
2019-02-16T20:50:38.253Z,78.19
2019-02-16T20:53:57.429Z,78.58
2019-02-16T20:56:59.294Z,78.81
2019-02-16T20:59:54.467Z,79.00
2019-02-16T21:03:04.453Z,78.92
2019-02-16T21:06:17.426Z,78.78
2019-02-16T21:09:34.084Z,78.65
2019-02-16T21:12:41.192Z,79.08
2019-02-16T21:15:42.491Z,79.60
2019-02-16T21:18:55.943Z,79.60
2019-02-16T21:22:08.218Z,80.03
2019-02-16T21:25:05.022Z,80.03
2019-02-16T21:28:17.954Z,80.81
2019-02-16T21:31:32.330Z,81.16
2019-02-16T21:34:38.293Z,81.11
2019-02-16T21:37:51.888Z,81.11
2019-02-16T21:40:49.427Z,80.87
2019-02-16T21:43:50.305Z,80.87
2019-02-16T21:46:49.683Z,81.60
2019-02-16T21:50:02.191Z,82.36
2019-02-16T21:53:01.205Z,82.36
2019-02-16T21:56:06.987Z,82.60
2019-02-16T21:59:29.616Z,83.34
2019-02-16T22:02:39.919Z,83.34
2019-02-16T22:05:49.788Z,84.09
2019-02-16T22:09:03.237Z,84.72
2019-02-16T22:12:19.453Z,84.72
2019-02-16T22:15:08.785Z,85.64
2019-02-16T22:17:57.568Z,85.64
2019-02-16T22:20:45.787Z,85.90
2019-02-16T22:23:34.127Z,86.30
2019-02-16T22:26:22.739Z,86.68
2019-02-16T22:29:11.375Z,87.00
2019-02-16T22:31:59.629Z,87.29
2019-02-16T22:34:48.258Z,87.56
2019-02-16T22:37:36.839Z,88.02
2019-02-16T22:40:25.437Z,88.44
2019-02-16T22:43:13.679Z,88.86
2019-02-16T22:46:02.652Z,88.99
2019-02-16T22:48:52.379Z,89.13
2019-02-16T22:51:40.873Z,89.38
2019-02-16T22:54:29.101Z,89.63
2019-02-16T22:57:17.629Z,89.83
2019-02-16T23:00:09.898Z,90.03
2019-02-16T23:02:58.519Z,90.18
2019-02-16T23:05:46.699Z,90.35
2019-02-16T23:08:34.998Z,90.48
2019-02-16T23:11:23.277Z,90.67
2019-02-16T23:14:11.888Z,90.89
2019-02-16T23:17:00.077Z,91.09
2019-02-16T23:19:49.096Z,91.36
2019-02-16T23:22:37.380Z,91.58
2019-02-16T23:25:26.001Z,91.71
2019-02-16T23:28:14.280Z,91.83
2019-02-16T23:31:03.074Z,91.96
2019-02-16T23:33:51.404Z,92.13
2019-02-16T23:36:39.868Z,92.56
2019-02-16T23:39:28.059Z,93.04
2019-02-16T23:42:16.523Z,93.19
2019-02-16T23:45:05.150Z,93.42
2019-02-16T23:47:54.355Z,93.59
2019-02-16T23:50:43.379Z,93.71
2019-02-16T23:53:31.563Z,93.77
2019-02-16T23:56:19.763Z,93.81
2019-02-16T23:59:08.420Z,93.76
